sensor_id;sensor_type;location;lat;lon;timestamp;P1;durP1;ratioP1;P2;durP2;ratioP2
31306;SDS011;17935;51.120;13.132;2023-06-22T00:01:26;12.02;;;10.82;;
31306;SDS011;17935;51.120;13.132;2023-06-22T00:03:52;11.75;;;10.13;;
31306;SDS011;17935;51.120;13.132;2023-06-22T00:06:18;11.30;;;9.18;;
31306;SDS011;17935;51.120;13.132;2023-06-22T00:08:44;14.20;;;9.43;;
31306;SDS011;17935;51.120;13.132;2023-06-22T00:11:10;16.13;;;12.02;;
31306;SDS011;17935;51.120;13.132;2023-06-22T00:13:37;16.38;;;12.27;;
31306;SDS011;17935;51.120;13.132;2023-06-22T00:16:03;18.85;;;12.85;;
31306;SDS011;17935;51.120;13.132;2023-06-22T00:18:29;18.17;;;13.13;;
31306;SDS011;17935;51.120;13.132;2023-06-22T00:20:57;15.23;;;13.07;;
31306;SDS011;17935;51.120;13.132;2023-06-22T00:23:23;17.25;;;13.35;;
31306;SDS011;17935;51.120;13.132;2023-06-22T00:25:49;18.63;;;14.23;;
31306;SDS011;17935;51.120;13.132;2023-06-22T00:28:15;15.23;;;11.82;;
31306;SDS011;17935;51.120;13.132;2023-06-22T00:30:41;15.52;;;12.52;;
31306;SDS011;17935;51.120;13.132;2023-06-22T00:33:07;13.85;;;12.43;;
31306;SDS011;17935;51.120;13.132;2023-06-22T00:35:33;15.35;;;11.25;;
31306;SDS011;17935;51.120;13.132;2023-06-22T00:37:59;16.05;;;12.88;;
31306;SDS011;17935;51.120;13.132;2023-06-22T00:40:27;12.00;;;10.40;;
31306;SDS011;17935;51.120;13.132;2023-06-22T00:42:53;12.25;;;10.00;;
31306;SDS011;17935;51.120;13.132;2023-06-22T00:45:19;14.07;;;10.93;;
31306;SDS011;17935;51.120;13.132;2023-06-22T00:47:46;12.45;;;10.43;;
31306;SDS011;17935;51.120;13.132;2023-06-22T00:50:13;11.70;;;8.98;;
31306;SDS011;17935;51.120;13.132;2023-06-22T00:52:43;13.75;;;9.30;;
31306;SDS011;17935;51.120;13.132;2023-06-22T00:55:11;9.38;;;8.38;;
31306;SDS011;17935;51.120;13.132;2023-06-22T00:57:37;11.70;;;9.82;;
31306;SDS011;17935;51.120;13.132;2023-06-22T01:00:03;16.08;;;12.45;;
31306;SDS011;17935;51.120;13.132;2023-06-22T01:02:34;13.73;;;10.73;;
31306;SDS011;17935;51.120;13.132;2023-06-22T01:05:01;19.80;;;10.40;;
31306;SDS011;17935;51.120;13.132;2023-06-22T01:07:39;12.88;;;9.80;;
31306;SDS011;17935;51.120;13.132;2023-06-22T01:10:08;11.52;;;9.38;;
31306;SDS011;17935;51.120;13.132;2023-06-22T01:12:38;10.95;;;9.45;;
31306;SDS011;17935;51.120;13.132;2023-06-22T01:15:09;11.32;;;9.48;;
31306;SDS011;17935;51.120;13.132;2023-06-22T01:17:36;14.20;;;9.00;;
31306;SDS011;17935;51.120;13.132;2023-06-22T01:20:04;10.77;;;8.73;;
31306;SDS011;17935;51.120;13.132;2023-06-22T01:22:33;13.18;;;9.68;;
31306;SDS011;17935;51.120;13.132;2023-06-22T01:27:48;17.60;;;11.02;;
31306;SDS011;17935;51.120;13.132;2023-06-22T01:30:16;12.77;;;10.50;;
31306;SDS011;17935;51.120;13.132;2023-06-22T01:32:42;12.27;;;9.15;;
31306;SDS011;17935;51.120;13.132;2023-06-22T01:35:08;10.88;;;8.68;;
31306;SDS011;17935;51.120;13.132;2023-06-22T01:37:35;12.52;;;8.60;;
31306;SDS011;17935;51.120;13.132;2023-06-22T01:40:02;11.07;;;8.55;;
31306;SDS011;17935;51.120;13.132;2023-06-22T01:42:30;13.30;;;10.63;;
31306;SDS011;17935;51.120;13.132;2023-06-22T01:44:56;16.85;;;12.00;;
31306;SDS011;17935;51.120;13.132;2023-06-22T01:47:22;14.32;;;10.23;;
31306;SDS011;17935;51.120;13.132;2023-06-22T01:49:49;18.33;;;12.85;;
31306;SDS011;17935;51.120;13.132;2023-06-22T01:52:16;15.75;;;10.68;;
31306;SDS011;17935;51.120;13.132;2023-06-22T01:54:42;16.90;;;12.45;;
31306;SDS011;17935;51.120;13.132;2023-06-22T01:57:08;13.25;;;10.65;;
31306;SDS011;17935;51.120;13.132;2023-06-22T01:59:37;20.92;;;13.10;;
31306;SDS011;17935;51.120;13.132;2023-06-22T02:02:06;23.83;;;11.20;;
31306;SDS011;17935;51.120;13.132;2023-06-22T02:05:16;21.65;;;10.07;;
31306;SDS011;17935;51.120;13.132;2023-06-22T02:07:23;12.07;;;9.80;;
31306;SDS011;17935;51.120;13.132;2023-06-22T02:09:50;18.95;;;10.10;;
31306;SDS011;17935;51.120;13.132;2023-06-22T02:12:17;16.50;;;11.52;;
31306;SDS011;17935;51.120;13.132;2023-06-22T02:14:44;15.77;;;11.63;;
31306;SDS011;17935;51.120;13.132;2023-06-22T02:17:11;13.90;;;9.75;;
31306;SDS011;17935;51.120;13.132;2023-06-22T02:19:38;20.05;;;11.23;;
31306;SDS011;17935;51.120;13.132;2023-06-22T02:22:04;14.15;;;9.15;;
31306;SDS011;17935;51.120;13.132;2023-06-22T02:24:30;10.38;;;9.30;;
31306;SDS011;17935;51.120;13.132;2023-06-22T02:26:58;18.33;;;10.23;;
31306;SDS011;17935;51.120;13.132;2023-06-22T02:29:24;15.00;;;11.25;;
31306;SDS011;17935;51.120;13.132;2023-06-22T02:31:50;20.17;;;10.93;;
31306;SDS011;17935;51.120;13.132;2023-06-22T02:34:16;18.83;;;12.32;;
31306;SDS011;17935;51.120;13.132;2023-06-22T02:36:46;21.45;;;11.40;;
31306;SDS011;17935;51.120;13.132;2023-06-22T02:39:19;21.93;;;10.13;;
31306;SDS011;17935;51.120;13.132;2023-06-22T02:41:47;13.38;;;8.82;;
31306;SDS011;17935;51.120;13.132;2023-06-22T02:44:13;18.13;;;9.80;;
31306;SDS011;17935;51.120;13.132;2023-06-22T02:46:39;19.52;;;11.77;;
31306;SDS011;17935;51.120;13.132;2023-06-22T02:49:05;22.77;;;12.07;;
31306;SDS011;17935;51.120;13.132;2023-06-22T02:51:32;15.98;;;10.15;;
31306;SDS011;17935;51.120;13.132;2023-06-22T02:54:01;17.55;;;12.75;;
31306;SDS011;17935;51.120;13.132;2023-06-22T02:56:28;21.80;;;12.23;;
31306;SDS011;17935;51.120;13.132;2023-06-22T02:58:55;14.23;;;10.10;;
31306;SDS011;17935;51.120;13.132;2023-06-22T03:01:26;15.25;;;10.85;;
31306;SDS011;17935;51.120;13.132;2023-06-22T03:03:53;16.67;;;11.35;;
31306;SDS011;17935;51.120;13.132;2023-06-22T03:06:20;13.18;;;9.77;;
31306;SDS011;17935;51.120;13.132;2023-06-22T03:08:48;20.17;;;10.20;;
31306;SDS011;17935;51.120;13.132;2023-06-22T03:11:14;18.83;;;9.68;;
31306;SDS011;17935;51.120;13.132;2023-06-22T03:13:41;21.00;;;10.57;;
31306;SDS011;17935;51.120;13.132;2023-06-22T03:16:07;20.25;;;11.73;;
31306;SDS011;17935;51.120;13.132;2023-06-22T03:18:32;18.08;;;12.32;;
31306;SDS011;17935;51.120;13.132;2023-06-22T03:20:58;17.65;;;11.18;;
31306;SDS011;17935;51.120;13.132;2023-06-22T03:23:27;19.15;;;13.23;;
31306;SDS011;17935;51.120;13.132;2023-06-22T03:25:53;15.88;;;12.15;;
31306;SDS011;17935;51.120;13.132;2023-06-22T03:28:20;17.48;;;12.07;;
31306;SDS011;17935;51.120;13.132;2023-06-22T03:30:46;16.70;;;12.00;;
31306;SDS011;17935;51.120;13.132;2023-06-22T03:33:12;16.77;;;10.68;;
31306;SDS011;17935;51.120;13.132;2023-06-22T03:35:38;13.63;;;9.20;;
31306;SDS011;17935;51.120;13.132;2023-06-22T03:38:04;10.13;;;8.68;;
31306;SDS011;17935;51.120;13.132;2023-06-22T03:40:30;18.13;;;11.05;;
31306;SDS011;17935;51.120;13.132;2023-06-22T03:42:56;17.73;;;10.40;;
31306;SDS011;17935;51.120;13.132;2023-06-22T03:45:22;16.52;;;10.48;;
31306;SDS011;17935;51.120;13.132;2023-06-22T03:47:48;21.15;;;10.43;;
31306;SDS011;17935;51.120;13.132;2023-06-22T03:50:14;18.17;;;10.48;;
31306;SDS011;17935;51.120;13.132;2023-06-22T03:52:40;16.33;;;9.10;;
31306;SDS011;17935;51.120;13.132;2023-06-22T03:55:06;16.45;;;8.57;;
31306;SDS011;17935;51.120;13.132;2023-06-22T03:57:33;17.13;;;9.43;;
31306;SDS011;17935;51.120;13.132;2023-06-22T03:59:59;20.17;;;10.05;;
31306;SDS011;17935;51.120;13.132;2023-06-22T04:02:25;19.70;;;8.93;;
31306;SDS011;17935;51.120;13.132;2023-06-22T04:04:51;14.65;;;7.93;;
31306;SDS011;17935;51.120;13.132;2023-06-22T04:07:17;13.23;;;8.15;;
31306;SDS011;17935;51.120;13.132;2023-06-22T04:09:43;16.33;;;7.75;;
31306;SDS011;17935;51.120;13.132;2023-06-22T04:12:09;11.20;;;8.05;;
31306;SDS011;17935;51.120;13.132;2023-06-22T04:14:35;12.75;;;7.20;;
31306;SDS011;17935;51.120;13.132;2023-06-22T04:17:01;12.55;;;8.00;;
31306;SDS011;17935;51.120;13.132;2023-06-22T04:19:27;10.40;;;7.53;;
31306;SDS011;17935;51.120;13.132;2023-06-22T04:21:53;14.43;;;7.35;;
31306;SDS011;17935;51.120;13.132;2023-06-22T04:24:19;12.05;;;7.43;;
31306;SDS011;17935;51.120;13.132;2023-06-22T04:26:45;13.05;;;6.82;;
31306;SDS011;17935;51.120;13.132;2023-06-22T04:29:12;12.65;;;7.45;;
31306;SDS011;17935;51.120;13.132;2023-06-22T04:31:38;15.13;;;6.75;;
31306;SDS011;17935;51.120;13.132;2023-06-22T04:34:04;15.13;;;7.28;;
31306;SDS011;17935;51.120;13.132;2023-06-22T04:36:40;17.35;;;7.50;;
31306;SDS011;17935;51.120;13.132;2023-06-22T04:39:07;15.43;;;7.00;;
31306;SDS011;17935;51.120;13.132;2023-06-22T04:41:34;13.07;;;7.93;;
31306;SDS011;17935;51.120;13.132;2023-06-22T04:44:10;10.50;;;6.40;;
31306;SDS011;17935;51.120;13.132;2023-06-22T04:46:36;15.77;;;7.93;;
31306;SDS011;17935;51.120;13.132;2023-06-22T04:49:08;23.40;;;6.53;;
31306;SDS011;17935;51.120;13.132;2023-06-22T04:51:40;11.05;;;6.13;;
31306;SDS011;17935;51.120;13.132;2023-06-22T04:54:07;15.40;;;7.07;;
31306;SDS011;17935;51.120;13.132;2023-06-22T04:56:33;13.35;;;7.63;;
31306;SDS011;17935;51.120;13.132;2023-06-22T04:58:59;17.65;;;8.07;;
31306;SDS011;17935;51.120;13.132;2023-06-22T05:01:25;16.23;;;7.43;;
31306;SDS011;17935;51.120;13.132;2023-06-22T05:03:51;10.02;;;7.32;;
31306;SDS011;17935;51.120;13.132;2023-06-22T05:06:20;16.45;;;7.68;;
31306;SDS011;17935;51.120;13.132;2023-06-22T05:08:46;20.20;;;7.60;;
31306;SDS011;17935;51.120;13.132;2023-06-22T05:11:12;18.90;;;8.02;;
31306;SDS011;17935;51.120;13.132;2023-06-22T05:13:38;21.48;;;7.72;;
31306;SDS011;17935;51.120;13.132;2023-06-22T05:16:04;16.85;;;7.65;;
31306;SDS011;17935;51.120;13.132;2023-06-22T05:18:30;12.00;;;8.68;;
31306;SDS011;17935;51.120;13.132;2023-06-22T05:20:57;12.27;;;7.82;;
31306;SDS011;17935;51.120;13.132;2023-06-22T05:23:24;18.42;;;8.73;;
31306;SDS011;17935;51.120;13.132;2023-06-22T05:25:50;11.93;;;7.82;;
31306;SDS011;17935;51.120;13.132;2023-06-22T05:28:16;12.18;;;8.13;;
31306;SDS011;17935;51.120;13.132;2023-06-22T05:30:47;16.45;;;8.20;;
31306;SDS011;17935;51.120;13.132;2023-06-22T05:33:13;13.02;;;7.50;;
31306;SDS011;17935;51.120;13.132;2023-06-22T05:35:39;11.10;;;7.10;;
31306;SDS011;17935;51.120;13.132;2023-06-22T05:38:06;18.40;;;8.32;;
31306;SDS011;17935;51.120;13.132;2023-06-22T05:40:32;13.90;;;7.25;;
31306;SDS011;17935;51.120;13.132;2023-06-22T05:42:58;12.77;;;7.13;;
31306;SDS011;17935;51.120;13.132;2023-06-22T05:45:25;13.15;;;8.13;;
31306;SDS011;17935;51.120;13.132;2023-06-22T05:47:51;21.27;;;10.38;;
31306;SDS011;17935;51.120;13.132;2023-06-22T05:50:17;13.23;;;7.38;;
31306;SDS011;17935;51.120;13.132;2023-06-22T05:52:43;12.38;;;6.93;;
31306;SDS011;17935;51.120;13.132;2023-06-22T05:55:09;13.48;;;7.35;;
31306;SDS011;17935;51.120;13.132;2023-06-22T05:57:35;7.60;;;6.70;;
31306;SDS011;17935;51.120;13.132;2023-06-22T06:00:01;12.38;;;7.72;;
31306;SDS011;17935;51.120;13.132;2023-06-22T06:02:28;12.23;;;6.93;;
31306;SDS011;17935;51.120;13.132;2023-06-22T06:04:54;11.45;;;7.38;;
31306;SDS011;17935;51.120;13.132;2023-06-22T06:07:20;8.73;;;7.70;;
31306;SDS011;17935;51.120;13.132;2023-06-22T06:09:46;9.38;;;7.43;;
31306;SDS011;17935;51.120;13.132;2023-06-22T06:12:13;12.23;;;8.05;;
31306;SDS011;17935;51.120;13.132;2023-06-22T06:14:39;10.10;;;8.10;;
31306;SDS011;17935;51.120;13.132;2023-06-22T06:17:05;11.63;;;7.57;;
31306;SDS011;17935;51.120;13.132;2023-06-22T06:19:30;11.60;;;8.00;;
31306;SDS011;17935;51.120;13.132;2023-06-22T06:21:56;10.05;;;8.00;;
31306;SDS011;17935;51.120;13.132;2023-06-22T06:24:22;10.30;;;8.10;;
31306;SDS011;17935;51.120;13.132;2023-06-22T06:26:48;17.50;;;9.57;;
31306;SDS011;17935;51.120;13.132;2023-06-22T06:29:15;10.38;;;8.63;;
31306;SDS011;17935;51.120;13.132;2023-06-22T06:31:41;9.77;;;8.10;;
31306;SDS011;17935;51.120;13.132;2023-06-22T06:34:07;13.40;;;9.27;;
31306;SDS011;17935;51.120;13.132;2023-06-22T06:36:33;12.45;;;8.32;;
31306;SDS011;17935;51.120;13.132;2023-06-22T06:38:59;10.93;;;8.57;;
31306;SDS011;17935;51.120;13.132;2023-06-22T06:41:25;8.88;;;7.93;;
31306;SDS011;17935;51.120;13.132;2023-06-22T06:43:51;13.98;;;7.82;;
31306;SDS011;17935;51.120;13.132;2023-06-22T06:46:17;8.07;;;7.38;;
31306;SDS011;17935;51.120;13.132;2023-06-22T06:48:44;11.85;;;7.50;;
31306;SDS011;17935;51.120;13.132;2023-06-22T06:51:10;11.98;;;6.93;;
31306;SDS011;17935;51.120;13.132;2023-06-22T06:53:37;8.90;;;6.82;;
31306;SDS011;17935;51.120;13.132;2023-06-22T06:56:03;11.10;;;6.95;;
31306;SDS011;17935;51.120;13.132;2023-06-22T06:58:30;8.05;;;6.55;;
31306;SDS011;17935;51.120;13.132;2023-06-22T07:00:56;6.60;;;5.93;;
31306;SDS011;17935;51.120;13.132;2023-06-22T07:03:22;8.05;;;6.05;;
31306;SDS011;17935;51.120;13.132;2023-06-22T07:05:48;9.88;;;6.68;;
31306;SDS011;17935;51.120;13.132;2023-06-22T07:08:14;8.32;;;7.30;;
31306;SDS011;17935;51.120;13.132;2023-06-22T07:10:40;12.40;;;6.97;;
31306;SDS011;17935;51.120;13.132;2023-06-22T07:13:06;11.90;;;6.90;;
31306;SDS011;17935;51.120;13.132;2023-06-22T07:15:32;8.57;;;6.60;;
31306;SDS011;17935;51.120;13.132;2023-06-22T07:17:58;8.13;;;6.50;;
31306;SDS011;17935;51.120;13.132;2023-06-22T07:20:24;7.30;;;5.80;;
31306;SDS011;17935;51.120;13.132;2023-06-22T07:22:51;7.10;;;5.80;;
31306;SDS011;17935;51.120;13.132;2023-06-22T07:25:18;12.77;;;6.38;;
31306;SDS011;17935;51.120;13.132;2023-06-22T07:27:45;8.32;;;5.95;;
31306;SDS011;17935;51.120;13.132;2023-06-22T07:30:11;10.20;;;5.70;;
31306;SDS011;17935;51.120;13.132;2023-06-22T07:32:37;6.32;;;5.72;;
31306;SDS011;17935;51.120;13.132;2023-06-22T07:35:03;8.90;;;7.15;;
31306;SDS011;17935;51.120;13.132;2023-06-22T07:37:30;8.38;;;6.35;;
31306;SDS011;17935;51.120;13.132;2023-06-22T07:39:58;8.90;;;7.25;;
31306;SDS011;17935;51.120;13.132;2023-06-22T07:42:26;8.27;;;6.70;;
31306;SDS011;17935;51.120;13.132;2023-06-22T07:44:57;10.40;;;6.93;;
31306;SDS011;17935;51.120;13.132;2023-06-22T07:47:23;10.38;;;6.40;;
31306;SDS011;17935;51.120;13.132;2023-06-22T07:49:53;8.68;;;6.57;;
31306;SDS011;17935;51.120;13.132;2023-06-22T07:52:20;10.73;;;6.57;;
31306;SDS011;17935;51.120;13.132;2023-06-22T07:54:46;9.32;;;6.60;;
31306;SDS011;17935;51.120;13.132;2023-06-22T07:57:12;15.32;;;7.22;;
31306;SDS011;17935;51.120;13.132;2023-06-22T07:59:38;8.13;;;7.10;;
31306;SDS011;17935;51.120;13.132;2023-06-22T08:02:04;11.95;;;7.32;;
31306;SDS011;17935;51.120;13.132;2023-06-22T08:04:30;10.60;;;7.07;;
31306;SDS011;17935;51.120;13.132;2023-06-22T08:06:59;12.75;;;7.40;;
31306;SDS011;17935;51.120;13.132;2023-06-22T08:09:25;10.15;;;7.47;;
31306;SDS011;17935;51.120;13.132;2023-06-22T08:11:50;10.45;;;6.93;;
31306;SDS011;17935;51.120;13.132;2023-06-22T08:14:17;8.32;;;6.88;;
31306;SDS011;17935;51.120;13.132;2023-06-22T08:16:42;6.90;;;6.15;;
31306;SDS011;17935;51.120;13.132;2023-06-22T08:19:08;7.88;;;6.60;;
31306;SDS011;17935;51.120;13.132;2023-06-22T08:21:34;6.45;;;5.85;;
31306;SDS011;17935;51.120;13.132;2023-06-22T08:24:00;7.05;;;6.30;;
31306;SDS011;17935;51.120;13.132;2023-06-22T08:26:27;10.25;;;6.22;;
31306;SDS011;17935;51.120;13.132;2023-06-22T08:28:53;10.20;;;6.82;;
31306;SDS011;17935;51.120;13.132;2023-06-22T08:31:19;7.75;;;5.75;;
31306;SDS011;17935;51.120;13.132;2023-06-22T08:33:45;6.45;;;5.72;;
31306;SDS011;17935;51.120;13.132;2023-06-22T08:36:11;11.07;;;5.47;;
31306;SDS011;17935;51.120;13.132;2023-06-22T08:38:38;8.43;;;6.20;;
31306;SDS011;17935;51.120;13.132;2023-06-22T08:41:04;5.63;;;5.22;;
31306;SDS011;17935;51.120;13.132;2023-06-22T08:43:30;6.90;;;5.80;;
31306;SDS011;17935;51.120;13.132;2023-06-22T08:45:56;7.03;;;5.72;;
31306;SDS011;17935;51.120;13.132;2023-06-22T08:48:22;10.77;;;5.75;;
31306;SDS011;17935;51.120;13.132;2023-06-22T08:50:48;8.88;;;6.07;;
31306;SDS011;17935;51.120;13.132;2023-06-22T08:53:14;6.63;;;5.30;;
31306;SDS011;17935;51.120;13.132;2023-06-22T08:55:40;5.75;;;5.25;;
31306;SDS011;17935;51.120;13.132;2023-06-22T08:58:06;9.70;;;5.47;;
31306;SDS011;17935;51.120;13.132;2023-06-22T09:00:31;7.63;;;5.78;;
31306;SDS011;17935;51.120;13.132;2023-06-22T09:02:59;7.72;;;5.38;;
31306;SDS011;17935;51.120;13.132;2023-06-22T09:05:25;11.73;;;5.43;;
31306;SDS011;17935;51.120;13.132;2023-06-22T09:07:51;7.53;;;5.53;;
31306;SDS011;17935;51.120;13.132;2023-06-22T09:10:17;7.40;;;5.80;;
31306;SDS011;17935;51.120;13.132;2023-06-22T09:12:43;5.97;;;5.45;;
31306;SDS011;17935;51.120;13.132;2023-06-22T09:15:09;9.32;;;6.00;;
31306;SDS011;17935;51.120;13.132;2023-06-22T09:17:35;5.97;;;5.38;;
31306;SDS011;17935;51.120;13.132;2023-06-22T09:20:01;6.93;;;5.07;;
31306;SDS011;17935;51.120;13.132;2023-06-22T09:22:30;5.30;;;4.90;;
31306;SDS011;17935;51.120;13.132;2023-06-22T09:24:56;6.35;;;5.78;;
31306;SDS011;17935;51.120;13.132;2023-06-22T09:27:22;8.48;;;5.55;;
31306;SDS011;17935;51.120;13.132;2023-06-22T09:29:49;5.38;;;4.97;;
31306;SDS011;17935;51.120;13.132;2023-06-22T09:32:15;8.10;;;5.07;;
31306;SDS011;17935;51.120;13.132;2023-06-22T09:34:41;6.10;;;5.50;;
31306;SDS011;17935;51.120;13.132;2023-06-22T09:37:07;9.32;;;4.65;;
31306;SDS011;17935;51.120;13.132;2023-06-22T09:39:33;4.88;;;4.47;;
31306;SDS011;17935;51.120;13.132;2023-06-22T09:41:59;5.80;;;4.60;;
31306;SDS011;17935;51.120;13.132;2023-06-22T09:44:25;9.35;;;4.47;;
31306;SDS011;17935;51.120;13.132;2023-06-22T09:46:51;5.47;;;4.97;;
31306;SDS011;17935;51.120;13.132;2023-06-22T09:49:17;5.18;;;4.78;;
31306;SDS011;17935;51.120;13.132;2023-06-22T09:51:43;6.65;;;4.95;;
31306;SDS011;17935;51.120;13.132;2023-06-22T09:54:09;6.80;;;4.78;;
31306;SDS011;17935;51.120;13.132;2023-06-22T09:56:35;6.15;;;5.60;;
31306;SDS011;17935;51.120;13.132;2023-06-22T09:59:02;5.85;;;5.25;;
31306;SDS011;17935;51.120;13.132;2023-06-22T10:01:28;6.05;;;5.47;;
31306;SDS011;17935;51.120;13.132;2023-06-22T10:03:55;6.10;;;5.07;;
31306;SDS011;17935;51.120;13.132;2023-06-22T10:06:21;6.00;;;5.40;;
31306;SDS011;17935;51.120;13.132;2023-06-22T10:08:47;6.25;;;5.45;;
31306;SDS011;17935;51.120;13.132;2023-06-22T10:11:15;6.00;;;5.50;;
31306;SDS011;17935;51.120;13.132;2023-06-22T10:13:41;6.03;;;5.53;;
31306;SDS011;17935;51.120;13.132;2023-06-22T10:16:07;7.15;;;5.97;;
31306;SDS011;17935;51.120;13.132;2023-06-22T10:18:32;8.80;;;6.35;;
31306;SDS011;17935;51.120;13.132;2023-06-22T10:20:59;10.95;;;6.32;;
31306;SDS011;17935;51.120;13.132;2023-06-22T10:23:25;8.50;;;6.25;;
31306;SDS011;17935;51.120;13.132;2023-06-22T10:25:51;8.38;;;7.10;;
31306;SDS011;17935;51.120;13.132;2023-06-22T10:28:17;7.15;;;6.32;;
31306;SDS011;17935;51.120;13.132;2023-06-22T10:30:43;7.50;;;6.80;;
31306;SDS011;17935;51.120;13.132;2023-06-22T10:33:09;9.13;;;6.93;;
31306;SDS011;17935;51.120;13.132;2023-06-22T10:35:36;8.80;;;7.38;;
31306;SDS011;17935;51.120;13.132;2023-06-22T10:38:05;7.30;;;6.60;;
31306;SDS011;17935;51.120;13.132;2023-06-22T10:40:31;10.00;;;7.18;;
31306;SDS011;17935;51.120;13.132;2023-06-22T10:42:57;8.93;;;7.13;;
31306;SDS011;17935;51.120;13.132;2023-06-22T10:45:23;7.40;;;6.70;;
31306;SDS011;17935;51.120;13.132;2023-06-22T10:47:49;8.25;;;6.68;;
31306;SDS011;17935;51.120;13.132;2023-06-22T10:50:15;7.68;;;6.88;;
31306;SDS011;17935;51.120;13.132;2023-06-22T10:52:41;9.23;;;8.18;;
31306;SDS011;17935;51.120;13.132;2023-06-22T10:55:07;8.70;;;7.80;;
31306;SDS011;17935;51.120;13.132;2023-06-22T10:57:34;9.27;;;8.25;;
31306;SDS011;17935;51.120;13.132;2023-06-22T10:59:59;10.52;;;7.82;;
31306;SDS011;17935;51.120;13.132;2023-06-22T11:02:25;8.13;;;6.82;;
31306;SDS011;17935;51.120;13.132;2023-06-22T11:04:53;16.88;;;7.90;;
31306;SDS011;17935;51.120;13.132;2023-06-22T11:07:19;10.80;;;7.13;;
31306;SDS011;17935;51.120;13.132;2023-06-22T11:09:45;7.95;;;7.18;;
31306;SDS011;17935;51.120;13.132;2023-06-22T11:12:11;11.70;;;6.88;;
31306;SDS011;17935;51.120;13.132;2023-06-22T11:14:38;9.00;;;7.85;;
31306;SDS011;17935;51.120;13.132;2023-06-22T11:17:04;9.02;;;7.80;;
31306;SDS011;17935;51.120;13.132;2023-06-22T11:19:30;8.65;;;7.50;;
31306;SDS011;17935;51.120;13.132;2023-06-22T11:21:56;8.20;;;7.40;;
31306;SDS011;17935;51.120;13.132;2023-06-22T11:24:22;8.68;;;7.35;;
31306;SDS011;17935;51.120;13.132;2023-06-22T11:26:48;14.82;;;8.38;;
31306;SDS011;17935;51.120;13.132;2023-06-22T11:29:14;11.00;;;7.20;;
31306;SDS011;17935;51.120;13.132;2023-06-22T11:31:39;9.68;;;8.30;;
31306;SDS011;17935;51.120;13.132;2023-06-22T11:34:07;11.07;;;7.95;;
31306;SDS011;17935;51.120;13.132;2023-06-22T11:36:33;9.73;;;8.40;;
31306;SDS011;17935;51.120;13.132;2023-06-22T11:39:00;10.40;;;7.07;;
31306;SDS011;17935;51.120;13.132;2023-06-22T11:41:26;8.57;;;7.75;;
31306;SDS011;17935;51.120;13.132;2023-06-22T11:43:52;9.73;;;7.15;;
31306;SDS011;17935;51.120;13.132;2023-06-22T11:46:18;9.93;;;6.68;;
31306;SDS011;17935;51.120;13.132;2023-06-22T11:48:44;8.57;;;7.78;;
31306;SDS011;17935;51.120;13.132;2023-06-22T11:51:10;12.88;;;8.50;;
31306;SDS011;17935;51.120;13.132;2023-06-22T11:53:36;11.75;;;8.48;;
31306;SDS011;17935;51.120;13.132;2023-06-22T11:56:02;10.20;;;8.02;;
31306;SDS011;17935;51.120;13.132;2023-06-22T11:58:28;8.82;;;7.75;;
31306;SDS011;17935;51.120;13.132;2023-06-22T12:00:54;9.00;;;7.65;;
31306;SDS011;17935;51.120;13.132;2023-06-22T12:03:20;11.10;;;8.10;;
31306;SDS011;17935;51.120;13.132;2023-06-22T12:05:46;8.60;;;7.70;;
31306;SDS011;17935;51.120;13.132;2023-06-22T12:08:12;7.70;;;7.03;;
31306;SDS011;17935;51.120;13.132;2023-06-22T12:10:38;9.27;;;8.13;;
31306;SDS011;17935;51.120;13.132;2023-06-22T12:13:04;9.55;;;7.75;;
31306;SDS011;17935;51.120;13.132;2023-06-22T12:15:30;8.50;;;6.85;;
31306;SDS011;17935;51.120;13.132;2023-06-22T12:17:56;11.35;;;8.68;;
31306;SDS011;17935;51.120;13.132;2023-06-22T12:20:22;8.32;;;7.53;;
31306;SDS011;17935;51.120;13.132;2023-06-22T12:22:48;9.07;;;8.18;;
31306;SDS011;17935;51.120;13.132;2023-06-22T12:25:16;8.68;;;7.78;;
31306;SDS011;17935;51.120;13.132;2023-06-22T12:27:42;9.88;;;8.30;;
31306;SDS011;17935;51.120;13.132;2023-06-22T12:30:08;15.48;;;8.63;;
31306;SDS011;17935;51.120;13.132;2023-06-22T12:32:34;9.90;;;8.55;;
31306;SDS011;17935;51.120;13.132;2023-06-22T12:35:00;8.30;;;7.43;;
31306;SDS011;17935;51.120;13.132;2023-06-22T12:37:26;9.00;;;7.57;;
31306;SDS011;17935;51.120;13.132;2023-06-22T12:39:53;9.77;;;8.00;;
31306;SDS011;17935;51.120;13.132;2023-06-22T12:42:19;10.15;;;8.45;;
31306;SDS011;17935;51.120;13.132;2023-06-22T12:44:45;9.63;;;7.68;;
31306;SDS011;17935;51.120;13.132;2023-06-22T12:47:11;13.13;;;7.55;;
31306;SDS011;17935;51.120;13.132;2023-06-22T12:49:38;9.77;;;7.88;;
31306;SDS011;17935;51.120;13.132;2023-06-22T12:52:08;15.52;;;8.18;;
31306;SDS011;17935;51.120;13.132;2023-06-22T12:54:35;10.93;;;7.97;;
31306;SDS011;17935;51.120;13.132;2023-06-22T12:57:01;13.88;;;8.63;;
31306;SDS011;17935;51.120;13.132;2023-06-22T12:59:27;13.13;;;8.35;;
31306;SDS011;17935;51.120;13.132;2023-06-22T13:01:53;10.10;;;8.13;;
31306;SDS011;17935;51.120;13.132;2023-06-22T13:04:19;9.05;;;8.13;;
31306;SDS011;17935;51.120;13.132;2023-06-22T13:06:46;8.85;;;7.80;;
31306;SDS011;17935;51.120;13.132;2023-06-22T13:09:13;8.73;;;7.82;;
31306;SDS011;17935;51.120;13.132;2023-06-22T13:11:39;13.95;;;8.15;;
31306;SDS011;17935;51.120;13.132;2023-06-22T13:14:05;8.63;;;7.82;;
31306;SDS011;17935;51.120;13.132;2023-06-22T13:16:31;8.32;;;7.53;;
31306;SDS011;17935;51.120;13.132;2023-06-22T13:18:57;12.20;;;8.63;;
31306;SDS011;17935;51.120;13.132;2023-06-22T13:21:23;10.40;;;7.90;;
31306;SDS011;17935;51.120;13.132;2023-06-22T13:23:49;13.05;;;8.18;;
31306;SDS011;17935;51.120;13.132;2023-06-22T13:26:14;11.70;;;8.05;;
31306;SDS011;17935;51.120;13.132;2023-06-22T13:28:40;9.77;;;7.63;;
31306;SDS011;17935;51.120;13.132;2023-06-22T13:31:06;10.75;;;7.72;;
31306;SDS011;17935;51.120;13.132;2023-06-22T13:33:32;9.93;;;7.70;;
31306;SDS011;17935;51.120;13.132;2023-06-22T13:35:58;9.38;;;7.63;;
31306;SDS011;17935;51.120;13.132;2023-06-22T13:38:24;9.38;;;8.07;;
31306;SDS011;17935;51.120;13.132;2023-06-22T13:40:50;9.80;;;8.10;;
31306;SDS011;17935;51.120;13.132;2023-06-22T13:43:16;11.70;;;7.50;;
31306;SDS011;17935;51.120;13.132;2023-06-22T13:45:42;9.60;;;8.63;;
31306;SDS011;17935;51.120;13.132;2023-06-22T13:48:08;11.65;;;8.25;;
31306;SDS011;17935;51.120;13.132;2023-06-22T13:50:34;9.77;;;8.27;;
31306;SDS011;17935;51.120;13.132;2023-06-22T13:53:00;13.10;;;7.40;;
31306;SDS011;17935;51.120;13.132;2023-06-22T13:55:26;8.65;;;7.72;;
31306;SDS011;17935;51.120;13.132;2023-06-22T13:57:52;8.30;;;7.22;;
31306;SDS011;17935;51.120;13.132;2023-06-22T14:00:18;9.35;;;7.80;;
31306;SDS011;17935;51.120;13.132;2023-06-22T14:02:44;10.75;;;8.13;;
31306;SDS011;17935;51.120;13.132;2023-06-22T14:05:10;8.63;;;7.82;;
31306;SDS011;17935;51.120;13.132;2023-06-22T14:07:36;13.98;;;7.85;;
31306;SDS011;17935;51.120;13.132;2023-06-22T14:10:02;14.13;;;8.10;;
31306;SDS011;17935;51.120;13.132;2023-06-22T14:12:29;9.57;;;7.65;;
31306;SDS011;17935;51.120;13.132;2023-06-22T14:14:55;14.07;;;7.85;;
31306;SDS011;17935;51.120;13.132;2023-06-22T14:17:22;9.05;;;7.82;;
31306;SDS011;17935;51.120;13.132;2023-06-22T14:19:50;10.57;;;7.82;;
31306;SDS011;17935;51.120;13.132;2023-06-22T14:22:17;12.65;;;7.80;;